createdAt,value
2022-09-23T00:00:27.476Z,65.56
2022-09-23T00:03:17.242Z,65.40
2022-09-23T00:06:01.940Z,65.65
2022-09-23T00:08:31.299Z,65.62
2022-09-23T00:11:18.467Z,65.81
2022-09-23T00:13:49.736Z,65.28
2022-09-23T00:16:22.778Z,65.65
2022-09-23T00:18:52.077Z,65.22
2022-09-23T00:21:22.416Z,65.57
2022-09-23T00:23:52.088Z,65.10
2022-09-23T00:26:23.528Z,65.48
2022-09-23T00:28:55.666Z,65.56
2022-09-23T00:31:31.475Z,65.80
2022-09-23T00:34:02.418Z,65.90
2022-09-23T00:36:33.066Z,66.05
2022-09-23T00:39:04.693Z,65.88
2022-09-23T00:41:36.694Z,66.21
2022-09-23T00:44:45.059Z,65.93
2022-09-23T00:47:17.412Z,65.98
2022-09-23T00:49:51.834Z,65.82
2022-09-23T00:52:24.992Z,66.04
2022-09-23T00:54:57.017Z,66.35
2022-09-23T00:57:28.234Z,65.94
2022-09-23T00:59:58.308Z,65.74
2022-09-23T01:02:28.871Z,65.98
2022-09-23T01:04:59.766Z,66.13
2022-09-23T01:07:30.579Z,65.93
2022-09-23T01:10:01.976Z,66.31
2022-09-23T01:12:50.940Z,66.30
2022-09-23T01:15:58.294Z,65.98
2022-09-23T01:18:47.450Z,66.11
2022-09-23T01:21:39.547Z,66.28
2022-09-23T01:24:44.726Z,66.42
2022-09-23T01:27:22.530Z,66.73
2022-09-23T01:30:11.031Z,66.51
2022-09-23T01:33:21.079Z,66.71
2022-09-23T01:36:16.898Z,66.72
2022-09-23T01:39:14.430Z,66.24
2022-09-23T01:41:49.439Z,66.37
2022-09-23T01:44:35.904Z,66.56
2022-09-23T01:47:17.139Z,66.96
2022-09-23T01:49:55.614Z,66.78
2022-09-23T01:52:27.644Z,66.80
2022-09-23T01:55:00.699Z,66.98
2022-09-23T01:57:36.060Z,66.89
2022-09-23T02:00:26.540Z,66.74
2022-09-23T02:03:05.327Z,66.79
2022-09-23T02:05:40.893Z,67.06
2022-09-23T02:08:14.687Z,66.94
2022-09-23T02:10:56.396Z,66.93
2022-09-23T02:13:51.939Z,66.99
2022-09-23T02:16:33.604Z,66.61
2022-09-23T02:19:28.567Z,67.03
2022-09-23T02:22:13.216Z,67.00
2022-09-23T02:24:42.944Z,66.84
2022-09-23T02:27:37.473Z,67.06
2022-09-23T02:30:20.630Z,67.28
2022-09-23T02:32:56.440Z,67.26
2022-09-23T02:35:38.293Z,67.16
2022-09-23T02:38:14.695Z,67.31
2022-09-23T02:40:54.970Z,67.15
2022-09-23T02:43:36.471Z,67.41
2022-09-23T02:46:07.842Z,67.67
2022-09-23T02:48:45.814Z,67.60
2022-09-23T02:51:16.434Z,67.71
2022-09-23T02:53:46.998Z,67.56
2022-09-23T02:56:22.718Z,67.80
2022-09-23T02:58:58.222Z,67.91
2022-09-23T03:01:48.268Z,67.96
2022-09-23T03:04:54.699Z,68.04
2022-09-23T03:07:54.010Z,67.98
2022-09-23T03:10:39.609Z,67.94
2022-09-23T03:13:36.135Z,67.97
2022-09-23T03:16:05.543Z,67.88
2022-09-23T03:18:54.354Z,67.74
2022-09-23T03:21:29.616Z,67.40
2022-09-23T03:24:02.599Z,67.60
2022-09-23T03:26:40.040Z,67.88
2022-09-23T03:29:12.266Z,68.07
2022-09-23T03:31:44.269Z,67.78
2022-09-23T03:34:24.697Z,68.19
2022-09-23T03:37:01.088Z,68.04
2022-09-23T03:39:51.859Z,68.17
2022-09-23T03:42:27.807Z,68.28
2022-09-23T03:44:58.326Z,68.54
2022-09-23T03:47:29.037Z,68.23
2022-09-23T03:49:59.542Z,68.27
2022-09-23T03:52:30.061Z,68.29
2022-09-23T03:55:01.804Z,67.76
2022-09-23T03:57:32.328Z,67.90
2022-09-23T04:00:03.258Z,68.04
2022-09-23T04:02:41.160Z,67.78
2022-09-23T04:05:12.361Z,68.07
2022-09-23T04:07:44.843Z,68.19
2022-09-23T04:10:14.373Z,68.17
2022-09-23T04:13:10.023Z,68.14
2022-09-23T04:15:41.308Z,68.31
2022-09-23T04:18:11.875Z,68.35
2022-09-23T04:20:40.731Z,68.45
2022-09-23T04:23:11.028Z,68.04
2022-09-23T04:25:49.520Z,68.40
2022-09-23T04:28:18.725Z,68.48
2022-09-23T04:30:49.262Z,68.06
2022-09-23T04:33:18.624Z,68.11
2022-09-23T04:35:52.103Z,68.31
2022-09-23T04:38:21.121Z,68.58
2022-09-23T04:40:52.260Z,68.19
2022-09-23T04:43:23.775Z,68.44
2022-09-23T04:46:04.552Z,68.63
2022-09-23T04:48:34.232Z,68.77
2022-09-23T04:51:06.431Z,68.74
2022-09-23T04:53:39.959Z,68.89
2022-09-23T04:56:12.053Z,68.55
2022-09-23T04:58:43.673Z,68.76
2022-09-23T05:01:16.255Z,68.43
2022-09-23T05:03:47.429Z,68.55
2022-09-23T05:06:17.523Z,68.47
2022-09-23T05:08:56.014Z,68.82
2022-09-23T05:11:26.145Z,68.72
2022-09-23T05:14:24.149Z,69.00
2022-09-23T05:16:56.938Z,68.95
2022-09-23T05:19:25.855Z,68.86
2022-09-23T05:21:56.744Z,68.79
2022-09-23T05:24:25.993Z,68.91
2022-09-23T05:26:56.652Z,68.78
2022-09-23T05:29:26.994Z,68.52
2022-09-23T05:31:57.429Z,69.01
2022-09-23T05:34:28.774Z,68.60
2022-09-23T05:36:58.872Z,68.14
2022-09-23T05:39:28.135Z,68.26
2022-09-23T05:42:01.412Z,68.21
2022-09-23T05:44:31.715Z,68.22
2022-09-23T05:47:01.806Z,68.26
2022-09-23T05:49:58.113Z,68.80
2022-09-23T05:52:25.914Z,68.69
2022-09-23T05:55:01.819Z,68.79
2022-09-23T05:57:33.139Z,68.37
2022-09-23T06:00:05.075Z,68.44
2022-09-23T06:02:40.913Z,68.20
2022-09-23T06:05:12.311Z,67.85
2022-09-23T06:07:41.318Z,68.04
2022-09-23T06:10:10.894Z,68.07
2022-09-23T06:12:42.878Z,67.84
2022-09-23T06:15:12.602Z,67.79
2022-09-23T06:17:41.470Z,68.16
2022-09-23T06:20:14.684Z,68.09
2022-09-23T06:22:44.513Z,67.76
2022-09-23T06:25:13.492Z,68.00
2022-09-23T06:27:43.807Z,67.84
2022-09-23T06:30:14.507Z,67.89
2022-09-23T06:32:50.320Z,67.41
2022-09-23T06:35:27.485Z,65.63
2022-09-23T06:37:58.448Z,63.26
2022-09-23T06:40:29.349Z,62.74
2022-09-23T06:43:00.975Z,60.63
2022-09-23T06:45:35.150Z,58.34
2022-09-23T06:48:08.630Z,58.12
2022-09-23T06:50:37.594Z,57.88
2022-09-23T06:53:08.975Z,57.86
2022-09-23T06:55:39.237Z,56.38
2022-09-23T06:58:10.356Z,56.00
2022-09-23T07:00:39.456Z,54.39
2022-09-23T07:03:12.148Z,53.50
2022-09-23T07:05:42.793Z,52.01
2022-09-23T07:08:11.692Z,52.40
2022-09-23T07:10:42.943Z,52.10
2022-09-23T07:13:16.422Z,49.29
2022-09-23T07:15:58.738Z,49.38
2022-09-23T07:18:34.287Z,50.36
2022-09-23T07:21:15.681Z,49.61
2022-09-23T07:23:47.687Z,48.27
2022-09-23T07:26:20.563Z,48.63
2022-09-23T07:28:58.101Z,49.09
2022-09-23T07:31:38.768Z,48.03
2022-09-23T07:34:11.989Z,47.57
2022-09-23T07:36:41.622Z,47.70
2022-09-23T07:39:13.523Z,48.35
2022-09-23T07:41:44.902Z,47.50
2022-09-23T07:44:15.399Z,46.51
2022-09-23T07:46:45.119Z,47.20
2022-09-23T07:49:17.597Z,48.05
2022-09-23T07:51:46.746Z,48.40
2022-09-23T07:54:18.697Z,48.11
2022-09-23T07:56:49.225Z,47.82
2022-09-23T07:59:19.689Z,46.68
2022-09-23T08:01:57.203Z,46.78
2022-09-23T08:04:30.132Z,46.22
2022-09-23T08:07:02.490Z,46.30
2022-09-23T08:09:42.148Z,46.66
2022-09-23T08:12:19.180Z,46.38
2022-09-23T08:14:50.153Z,45.93
2022-09-23T08:17:19.780Z,44.43
2022-09-23T08:19:50.482Z,44.58
2022-09-23T08:22:20.326Z,43.82
2022-09-23T08:24:49.975Z,44.23
2022-09-23T08:27:19.035Z,43.70
2022-09-23T08:29:48.327Z,43.02
2022-09-23T08:32:17.214Z,42.94
2022-09-23T08:34:48.140Z,43.01
2022-09-23T08:37:19.239Z,42.02
2022-09-23T08:39:48.196Z,41.12
2022-09-23T08:42:30.746Z,41.15
2022-09-23T08:45:06.187Z,41.14
2022-09-23T08:48:02.391Z,39.98
2022-09-23T08:50:49.972Z,39.83
2022-09-23T08:53:29.154Z,40.24
2022-09-23T08:56:03.103Z,39.36
2022-09-23T08:58:55.873Z,38.83
2022-09-23T09:01:42.800Z,39.58
2022-09-23T09:04:16.804Z,39.93
2022-09-23T09:07:24.527Z,40.82
2022-09-23T09:09:55.537Z,40.72
2022-09-23T09:12:47.087Z,41.77
2022-09-23T09:15:25.353Z,40.93
2022-09-23T09:18:17.240Z,40.52
2022-09-23T09:21:01.698Z,40.83
2022-09-23T09:23:52.482Z,40.27
2022-09-23T09:26:27.698Z,40.10
2022-09-23T09:29:17.159Z,39.68
2022-09-23T09:31:53.474Z,39.50
2022-09-23T09:34:46.938Z,39.44
2022-09-23T09:37:24.051Z,39.03
2022-09-23T09:39:53.005Z,38.04
2022-09-23T09:42:32.242Z,38.48
2022-09-23T09:45:13.747Z,38.25
2022-09-23T09:47:52.220Z,37.23
2022-09-23T09:50:50.336Z,36.50
2022-09-23T09:53:20.576Z,37.09
2022-09-23T09:56:12.398Z,37.29
2022-09-23T09:59:01.034Z,36.48
2022-09-23T10:01:35.316Z,35.93
2022-09-23T10:04:27.771Z,36.16
2022-09-23T10:07:15.907Z,35.23
2022-09-23T10:09:51.359Z,34.63
2022-09-23T10:12:26.156Z,33.68
2022-09-23T10:14:58.693Z,33.79
2022-09-23T10:17:35.947Z,33.71
2022-09-23T10:20:10.284Z,33.74
2022-09-23T10:22:43.596Z,33.18
2022-09-23T10:25:27.917Z,33.59
2022-09-23T10:27:58.061Z,33.16
2022-09-23T10:30:28.434Z,33.72
2022-09-23T10:32:59.259Z,34.16
2022-09-23T10:35:33.346Z,33.99
2022-09-23T10:38:02.422Z,34.13
2022-09-23T10:40:54.788Z,34.16
2022-09-23T10:44:11.879Z,33.96
2022-09-23T10:47:04.062Z,33.66
2022-09-23T10:49:41.899Z,33.39
2022-09-23T10:52:36.771Z,34.04
2022-09-23T10:55:24.448Z,33.26
2022-09-23T10:58:04.661Z,33.26
2022-09-23T11:01:07.058Z,33.33
2022-09-23T11:03:54.645Z,32.71
2022-09-23T11:06:29.319Z,33.03
2022-09-23T11:09:24.541Z,32.98
2022-09-23T11:12:21.715Z,32.46
2022-09-23T11:15:17.020Z,32.07
2022-09-23T11:18:22.574Z,33.05
2022-09-23T11:21:21.019Z,32.92
2022-09-23T11:23:55.762Z,33.18
2022-09-23T11:26:54.008Z,33.21
2022-09-23T11:29:34.272Z,33.61
2022-09-23T11:32:45.121Z,33.60
2022-09-23T11:35:39.472Z,33.74
2022-09-23T11:38:19.243Z,34.18
2022-09-23T11:40:55.161Z,34.09
2022-09-23T11:43:28.857Z,34.09
2022-09-23T11:46:21.802Z,34.15
2022-09-23T11:49:06.937Z,34.47
2022-09-23T11:51:47.057Z,34.48
2022-09-23T11:54:26.919Z,34.63
2022-09-23T11:57:00.802Z,34.82
2022-09-23T11:59:42.119Z,35.12
2022-09-23T12:02:32.899Z,34.77
2022-09-23T12:05:11.162Z,34.60
2022-09-23T12:07:58.391Z,34.30
2022-09-23T12:10:46.314Z,34.39
2022-09-23T12:13:41.119Z,34.30
2022-09-23T12:16:31.818Z,34.53
2022-09-23T12:19:16.685Z,34.64
2022-09-23T12:22:04.150Z,34.83
2022-09-23T12:24:53.538Z,34.86
2022-09-23T12:27:44.206Z,35.16
2022-09-23T12:30:20.236Z,35.48
2022-09-23T12:32:51.659Z,35.41
2022-09-23T12:35:38.149Z,35.48
2022-09-23T12:38:26.740Z,35.68
2022-09-23T12:40:57.960Z,35.84
2022-09-23T12:43:34.288Z,35.97
2022-09-23T12:46:26.120Z,35.74
2022-09-23T12:49:00.976Z,36.03
2022-09-23T12:51:38.371Z,36.28
2022-09-23T12:54:26.762Z,36.23
2022-09-23T12:56:56.456Z,36.30
2022-09-23T12:59:29.214Z,36.60
2022-09-23T13:02:19.770Z,36.58
2022-09-23T13:05:31.233Z,36.67
2022-09-23T13:08:07.110Z,36.56
2022-09-23T13:10:49.881Z,36.41
2022-09-23T13:13:24.994Z,36.87
2022-09-23T13:15:55.877Z,37.08
2022-09-23T13:19:02.994Z,37.22
2022-09-23T13:21:45.006Z,37.17
2022-09-23T13:24:13.972Z,37.20
2022-09-23T13:27:11.559Z,37.47
2022-09-23T13:30:14.663Z,37.11
2022-09-23T13:33:05.372Z,37.43
2022-09-23T13:35:42.168Z,37.58
2022-09-23T13:38:19.336Z,37.64
2022-09-23T13:40:52.711Z,37.66
2022-09-23T13:43:57.888Z,37.65
2022-09-23T13:46:31.911Z,37.59
2022-09-23T13:49:03.243Z,37.78
2022-09-23T13:51:39.589Z,37.94
2022-09-23T13:54:33.768Z,38.10
2022-09-23T13:57:03.832Z,37.73
2022-09-23T13:59:46.437Z,37.76
2022-09-23T14:02:19.821Z,37.60
2022-09-23T14:05:03.381Z,37.87
2022-09-23T14:07:34.854Z,37.99
2022-09-23T14:10:06.930Z,37.70
2022-09-23T14:12:43.874Z,37.55
2022-09-23T14:15:18.755Z,37.62
2022-09-23T14:18:13.869Z,37.59
2022-09-23T14:20:58.850Z,37.76
2022-09-23T14:23:34.833Z,37.81
2022-09-23T14:26:08.993Z,38.09
2022-09-23T14:28:38.044Z,38.42
2022-09-23T14:31:07.281Z,38.40
2022-09-23T14:33:43.258Z,38.36
2022-09-23T14:36:35.410Z,38.25
2022-09-23T14:39:08.836Z,38.23
2022-09-23T14:41:45.474Z,38.38
2022-09-23T14:44:28.461Z,38.57
2022-09-23T14:47:00.538Z,38.80
2022-09-23T14:49:31.609Z,39.24
2022-09-23T14:52:07.429Z,39.27
2022-09-23T14:54:48.222Z,39.17
2022-09-23T14:57:29.593Z,39.18
2022-09-23T15:00:17.892Z,39.26
2022-09-23T15:03:15.715Z,39.33
2022-09-23T15:05:49.610Z,39.54
2022-09-23T15:08:23.421Z,39.50
2022-09-23T15:10:52.770Z,39.63
2022-09-23T15:13:34.437Z,39.83
2022-09-23T15:16:05.193Z,39.90
2022-09-23T15:18:38.917Z,40.20
2022-09-23T15:21:11.420Z,40.33
2022-09-23T15:23:49.266Z,40.50
2022-09-23T15:26:23.451Z,40.70
2022-09-23T15:28:56.599Z,40.89
2022-09-23T15:31:27.413Z,40.84
2022-09-23T15:34:00.346Z,40.94
2022-09-23T15:36:31.272Z,41.09
2022-09-23T15:39:03.335Z,41.04
2022-09-23T15:41:35.384Z,41.06
2022-09-23T15:44:22.069Z,41.06
2022-09-23T15:46:52.435Z,41.20
2022-09-23T15:49:39.548Z,41.15
2022-09-23T15:52:12.713Z,41.27
2022-09-23T15:54:44.907Z,41.35
2022-09-23T15:57:16.474Z,41.48
2022-09-23T15:59:45.390Z,41.41
2022-09-23T16:02:24.227Z,41.38
2022-09-23T16:04:55.458Z,41.53
2022-09-23T16:07:25.741Z,41.63
2022-09-23T16:09:59.098Z,41.81
2022-09-23T16:12:31.619Z,41.77
2022-09-23T16:15:13.874Z,41.95
2022-09-23T16:17:45.234Z,41.73
2022-09-23T16:20:18.620Z,41.76
2022-09-23T16:22:54.517Z,42.03
2022-09-23T16:25:27.762Z,42.22
2022-09-23T16:27:59.307Z,42.45
2022-09-23T16:30:32.359Z,42.62
2022-09-23T16:33:02.592Z,42.55
2022-09-23T16:35:34.193Z,42.84
2022-09-23T16:38:04.609Z,42.80
2022-09-23T16:40:37.916Z,43.04
2022-09-23T16:43:08.374Z,43.21
2022-09-23T16:45:38.669Z,43.18
2022-09-23T16:48:11.009Z,43.45
2022-09-23T16:50:43.069Z,44.00
2022-09-23T16:53:17.827Z,43.99
2022-09-23T16:55:50.185Z,44.27
2022-09-23T16:58:19.286Z,44.35
2022-09-23T17:01:09.546Z,44.71
2022-09-23T17:03:41.321Z,44.95
2022-09-23T17:06:16.369Z,45.15
2022-09-23T17:08:48.634Z,45.23
2022-09-23T17:11:19.902Z,45.39
2022-09-23T17:13:52.445Z,45.43
2022-09-23T17:16:27.943Z,45.58
2022-09-23T17:18:57.691Z,45.74
2022-09-23T17:21:28.221Z,45.85
2022-09-23T17:23:59.376Z,45.93
2022-09-23T17:26:29.412Z,46.14
2022-09-23T17:29:01.187Z,46.17
2022-09-23T17:31:31.936Z,46.44
2022-09-23T17:34:02.046Z,46.34
2022-09-23T17:36:32.684Z,46.28
2022-09-23T17:39:04.003Z,46.46
2022-09-23T17:41:33.512Z,46.75
2022-09-23T17:44:02.573Z,46.94
2022-09-23T17:46:33.162Z,47.34
2022-09-23T17:49:04.350Z,47.20
2022-09-23T17:51:34.953Z,47.36
2022-09-23T17:54:03.901Z,47.45
2022-09-23T17:56:34.312Z,47.61
2022-09-23T17:59:04.875Z,47.51
2022-09-23T18:01:37.524Z,47.50
2022-09-23T18:04:07.320Z,47.74
2022-09-23T18:06:39.428Z,47.74
2022-09-23T18:09:09.189Z,47.71
2022-09-23T18:11:40.476Z,47.89
2022-09-23T18:14:40.118Z,47.90
2022-09-23T18:17:09.144Z,47.94
2022-09-23T18:19:38.500Z,47.82
2022-09-23T18:22:12.864Z,47.88
2022-09-23T18:24:42.779Z,48.06
2022-09-23T18:27:13.106Z,48.13
2022-09-23T18:29:42.234Z,48.30
2022-09-23T18:32:14.373Z,48.39
2022-09-23T18:34:45.164Z,48.50
2022-09-23T18:37:17.319Z,48.63
2022-09-23T18:39:49.807Z,48.73
2022-09-23T18:42:24.056Z,48.98
2022-09-23T18:44:58.770Z,48.88
2022-09-23T18:47:52.593Z,49.04
2022-09-23T18:50:43.661Z,49.19
2022-09-23T18:53:15.363Z,49.29
2022-09-23T18:55:48.922Z,49.09
2022-09-23T18:58:18.617Z,49.27
2022-09-23T19:00:48.931Z,49.50
2022-09-23T19:03:20.179Z,49.25
2022-09-23T19:05:49.954Z,49.49
2022-09-23T19:08:20.264Z,49.53
2022-09-23T19:11:00.673Z,49.50
2022-09-23T19:13:34.515Z,49.46
2022-09-23T19:16:12.701Z,49.62
2022-09-23T19:18:44.115Z,49.81
2022-09-23T19:21:16.299Z,49.83
2022-09-23T19:23:49.629Z,49.67
2022-09-23T19:26:22.495Z,49.88
2022-09-23T19:28:54.664Z,50.13
2022-09-23T19:31:30.457Z,49.87
2022-09-23T19:34:25.192Z,50.31
2022-09-23T19:36:57.839Z,50.13
2022-09-23T19:39:30.961Z,50.25
2022-09-23T19:42:01.750Z,50.48
2022-09-23T19:44:31.944Z,50.75
2022-09-23T19:47:00.888Z,50.89
2022-09-23T19:49:33.043Z,51.10
2022-09-23T19:52:05.417Z,51.15
2022-09-23T19:54:35.362Z,51.23
2022-09-23T19:57:07.304Z,51.13
2022-09-23T19:59:36.216Z,51.19
2022-09-23T20:02:05.306Z,51.22
2022-09-23T20:04:35.810Z,51.25
2022-09-23T20:07:05.950Z,51.36
2022-09-23T20:09:36.724Z,51.46
2022-09-23T20:12:06.784Z,51.68
2022-09-23T20:14:41.069Z,51.37
2022-09-23T20:17:10.666Z,51.83
2022-09-23T20:19:42.520Z,51.82
2022-09-23T20:22:32.438Z,51.82
2022-09-23T20:25:04.085Z,52.08
2022-09-23T20:27:35.284Z,52.08
2022-09-23T20:30:04.772Z,52.15
2022-09-23T20:32:39.799Z,52.02
2022-09-23T20:35:13.217Z,52.13
2022-09-23T20:37:44.753Z,52.22
2022-09-23T20:40:15.798Z,52.15
2022-09-23T20:42:49.342Z,52.15
2022-09-23T20:45:22.718Z,52.23
2022-09-23T20:47:52.893Z,52.21
2022-09-23T20:50:24.096Z,52.44
2022-09-23T20:52:53.702Z,52.73
2022-09-23T20:55:22.565Z,52.84
2022-09-23T20:57:51.591Z,52.65
2022-09-23T21:00:21.549Z,52.73
2022-09-23T21:02:54.135Z,52.84
2022-09-23T21:05:25.058Z,52.84
2022-09-23T21:07:54.036Z,52.87
2022-09-23T21:10:24.079Z,53.05
2022-09-23T21:12:54.395Z,53.13
2022-09-23T21:15:23.441Z,53.23
2022-09-23T21:17:53.011Z,53.28
2022-09-23T21:20:24.620Z,53.41
2022-09-23T21:22:53.709Z,53.57
2022-09-23T21:25:27.920Z,53.20
2022-09-23T21:28:02.496Z,53.29
2022-09-23T21:30:32.834Z,53.07
2022-09-23T21:33:03.609Z,53.13
2022-09-23T21:35:33.909Z,53.30
2022-09-23T21:38:04.650Z,53.67
2022-09-23T21:40:54.917Z,53.61
2022-09-23T21:43:26.878Z,53.74
2022-09-23T21:46:01.022Z,53.53
2022-09-23T21:48:31.316Z,53.69
2022-09-23T21:51:06.620Z,53.82
2022-09-23T21:53:38.366Z,53.77
2022-09-23T21:56:10.639Z,53.76
2022-09-23T21:58:43.895Z,53.94
2022-09-23T22:01:21.529Z,53.97
2022-09-23T22:03:53.321Z,54.07
2022-09-23T22:06:30.971Z,54.11
2022-09-23T22:09:03.081Z,54.15
2022-09-23T22:11:52.474Z,54.21
2022-09-23T22:15:11.488Z,54.24
2022-09-23T22:17:41.447Z,54.41
2022-09-23T22:20:11.952Z,54.39
2022-09-23T22:22:41.015Z,54.42
2022-09-23T22:25:12.954Z,54.27
2022-09-23T22:28:02.525Z,54.51
2022-09-23T22:30:50.010Z,54.56
2022-09-23T22:33:18.885Z,54.70
2022-09-23T22:35:48.495Z,54.53
2022-09-23T22:38:17.489Z,54.36
2022-09-23T22:40:47.680Z,54.67
2022-09-23T22:43:19.667Z,54.46
2022-09-23T22:45:55.043Z,54.41
2022-09-23T22:48:24.429Z,54.36
2022-09-23T22:50:58.310Z,54.60
2022-09-23T22:53:28.700Z,54.66
2022-09-23T22:56:01.590Z,54.83
2022-09-23T22:58:33.547Z,54.88
2022-09-23T23:01:03.044Z,55.11
2022-09-23T23:03:36.004Z,55.29
2022-09-23T23:06:07.811Z,55.04
2022-09-23T23:08:37.998Z,55.10
2022-09-23T23:11:11.933Z,55.05
2022-09-23T23:13:44.739Z,55.52
2022-09-23T23:16:15.937Z,55.19
2022-09-23T23:18:48.035Z,55.21
2022-09-23T23:21:20.064Z,55.06
2022-09-23T23:23:54.721Z,54.96
2022-09-23T23:26:26.977Z,55.08
2022-09-23T23:28:58.654Z,54.92
2022-09-23T23:31:32.418Z,55.22
2022-09-23T23:34:04.865Z,55.41
2022-09-23T23:36:33.996Z,55.36
2022-09-23T23:39:03.685Z,55.58
2022-09-23T23:41:35.417Z,55.42
2022-09-23T23:44:06.034Z,55.32
2022-09-23T23:46:37.810Z,55.12
2022-09-23T23:49:08.130Z,55.18
2022-09-23T23:51:38.774Z,55.39
2022-09-23T23:54:09.527Z,55.31
2022-09-23T23:56:40.047Z,55.64
2022-09-23T23:59:10.068Z,55.86
